createdAt,value
2023-03-04T00:04:23.391Z,24.87
2023-03-04T00:14:30.563Z,22.47
2023-03-04T00:24:35.273Z,23.23
2023-03-04T00:34:40.812Z,29.20
2023-03-04T00:44:45.371Z,29.40
2023-03-04T00:54:52.792Z,27.80
2023-03-04T01:05:00.826Z,29.10
2023-03-04T01:15:08.108Z,29.40
2023-03-04T01:25:16.996Z,12.90
2023-03-04T01:35:20.192Z,25.30
2023-03-04T01:45:24.595Z,21.10
2023-03-04T01:55:31.312Z,23.60
2023-03-04T02:05:37.957Z,35.80
2023-03-04T02:15:45.752Z,31.40
2023-03-04T02:26:24.347Z,25.33
2023-03-04T02:36:36.913Z,27.17
2023-03-04T02:46:41.372Z,31.73
2023-03-04T02:56:49.229Z,26.07
2023-03-04T03:06:55.039Z,28.90
2023-03-04T03:17:03.054Z,36.03
2023-03-04T03:27:09.068Z,27.63
2023-03-04T03:37:12.137Z,26.77
2023-03-04T03:47:17.363Z,31.87
2023-03-04T03:57:22.768Z,29.67
2023-03-04T04:07:24.814Z,30.70
2023-03-04T04:17:27.090Z,31.87
2023-03-04T04:27:33.982Z,31.77
2023-03-04T04:37:37.103Z,28.87
2023-03-04T04:47:41.449Z,23.87
2023-03-04T04:57:45.794Z,29.83
2023-03-04T05:07:55.572Z,26.37
2023-03-04T05:18:04.848Z,22.80
2023-03-04T05:28:12.526Z,16.27
2023-03-04T05:38:20.112Z,24.13
2023-03-04T05:48:24.997Z,26.43
2023-03-04T05:58:32.397Z,22.87
2023-03-04T06:08:37.219Z,17.67
2023-03-04T06:18:41.571Z,22.80
2023-03-04T06:28:47.149Z,23.30
2023-03-04T06:38:51.661Z,15.70
2023-03-04T06:48:53.859Z,23.23
2023-03-04T06:58:56.054Z,23.23
2023-03-04T07:09:00.691Z,24.23
2023-03-04T07:19:05.670Z,19.13
2023-03-04T07:29:11.372Z,22.93
2023-03-04T07:39:16.042Z,25.20
2023-03-04T07:49:18.138Z,18.47
2023-03-04T07:59:25.255Z,18.00
2023-03-04T08:09:31.586Z,15.00
2023-03-04T08:19:33.699Z,16.33
2023-03-04T08:29:40.442Z,17.13
2023-03-04T08:39:46.023Z,19.27
2023-03-04T08:49:50.501Z,19.17
2023-03-04T08:59:53.842Z,13.17
2023-03-04T09:09:56.381Z,21.00
2023-03-04T09:20:04.493Z,23.17
2023-03-04T09:30:09.666Z,16.07
2023-03-04T09:40:20.373Z,11.73
2023-03-04T09:50:22.773Z,16.30
2023-03-04T10:00:33.266Z,18.20
2023-03-04T10:10:44.070Z,12.13
2023-03-04T10:21:18.817Z,21.27
2023-03-04T10:31:33.133Z,19.10
2023-03-04T10:41:41.320Z,14.83
2023-03-04T10:51:52.019Z,14.43
2023-03-04T11:01:58.821Z,16.30
2023-03-04T11:12:11.090Z,23.50
2023-03-04T11:22:16.706Z,21.90
2023-03-04T11:32:27.644Z,20.90
2023-03-04T11:42:44.339Z,16.23
2023-03-04T11:53:04.964Z,14.03
2023-03-04T12:03:24.725Z,16.40
2023-03-04T12:13:36.529Z,17.67
2023-03-04T12:24:06.043Z,17.10
2023-03-04T12:34:33.854Z,17.77
2023-03-04T12:44:48.874Z,22.60
2023-03-04T12:54:54.203Z,15.33
2023-03-04T13:05:18.178Z,16.67
2023-03-04T13:15:26.643Z,16.60
2023-03-04T13:25:58.150Z,16.50
2023-03-04T13:36:05.447Z,7.20
2023-03-04T13:46:24.111Z,7.80
2023-03-04T13:56:29.494Z,4.53
2023-03-04T14:06:31.729Z,6.20
2023-03-04T14:16:42.262Z,2.37
2023-03-04T14:26:47.645Z,5.73
2023-03-04T14:36:51.935Z,6.77
2023-03-04T14:47:07.517Z,3.60
2023-03-04T14:57:26.264Z,4.27
2023-03-04T15:07:38.078Z,2.23
2023-03-04T15:17:42.740Z,2.33
2023-03-04T15:27:49.005Z,1.63
2023-03-04T15:37:55.158Z,2.63
2023-03-04T15:47:59.909Z,3.70
2023-03-04T15:58:06.926Z,3.37
2023-03-04T16:08:12.263Z,2.40
2023-03-04T16:18:19.156Z,4.67
2023-03-04T16:28:24.516Z,2.67
2023-03-04T16:38:34.733Z,1.37
2023-03-04T16:48:40.104Z,4.80
2023-03-04T16:58:50.233Z,1.20
2023-03-04T17:08:55.004Z,2.70
2023-03-04T17:19:00.198Z,2.47
2023-03-04T17:29:07.059Z,14.20
2023-03-04T17:39:09.397Z,5.40
2023-03-04T17:49:14.550Z,2.67
2023-03-04T17:59:22.358Z,3.07
2023-03-04T18:09:27.314Z,0.77
2023-03-04T18:19:34.326Z,1.43
2023-03-04T18:29:36.460Z,2.70
2023-03-04T18:39:38.752Z,3.07
2023-03-04T18:49:43.814Z,2.07
2023-03-04T18:59:55.959Z,2.60
2023-03-04T19:10:03.473Z,2.50
2023-03-04T19:20:09.526Z,1.60
2023-03-04T19:30:12.237Z,3.93
2023-03-04T19:40:17.146Z,4.27
2023-03-04T19:50:19.894Z,4.50
2023-03-04T20:00:25.176Z,3.70
2023-03-04T20:10:32.084Z,3.13
2023-03-04T20:20:36.497Z,3.43
2023-03-04T20:30:40.884Z,6.33
2023-03-04T20:40:45.524Z,5.27
2023-03-04T20:50:47.714Z,3.83
2023-03-04T21:00:52.079Z,2.97
2023-03-04T21:10:57.390Z,4.50
2023-03-04T21:21:01.003Z,4.20
2023-03-04T21:31:09.607Z,3.97
2023-03-04T21:41:16.755Z,3.37
2023-03-04T21:51:19.414Z,8.30
2023-03-04T22:01:22.059Z,4.67
2023-03-04T22:11:32.026Z,4.13
2023-03-04T22:21:34.231Z,2.20
2023-03-04T22:31:41.323Z,4.27
2023-03-04T22:41:43.617Z,4.80
2023-03-04T22:51:49.698Z,4.47
2023-03-04T23:01:54.329Z,5.93
2023-03-04T23:11:59.453Z,5.60
2023-03-04T23:22:02.700Z,6.77
2023-03-04T23:32:09.861Z,8.20
2023-03-04T23:42:12.080Z,6.90
2023-03-04T23:52:18.945Z,3.67
